createdAt,value
2022-09-15T00:02:25.810Z,20.17
2022-09-15T00:06:27.704Z,20.17
2022-09-15T00:10:29.657Z,20.15
2022-09-15T00:14:31.157Z,20.12
2022-09-15T00:18:33.873Z,20.08
2022-09-15T00:22:35.410Z,20.07
2022-09-15T00:26:37.202Z,20.07
2022-09-15T00:30:47.258Z,20.05
2022-09-15T00:34:50.760Z,20.04
2022-09-15T00:38:52.481Z,20.01
2022-09-15T00:42:54.004Z,20.00
2022-09-15T00:47:15.655Z,19.94
2022-09-15T00:51:24.168Z,19.87
2022-09-15T00:55:36.133Z,19.86
2022-09-15T00:59:40.392Z,19.82
2022-09-15T01:03:42.499Z,19.79
2022-09-15T01:07:59.215Z,19.76
2022-09-15T01:12:01.635Z,19.75
2022-09-15T01:16:33.310Z,19.71
2022-09-15T01:20:43.976Z,19.71
2022-09-15T01:25:14.439Z,19.67
2022-09-15T01:29:24.678Z,19.65
2022-09-15T01:33:46.354Z,19.62
2022-09-15T01:38:29.949Z,19.60
2022-09-15T01:42:33.209Z,19.60
2022-09-15T01:46:42.801Z,19.57
2022-09-15T01:50:48.875Z,19.53
2022-09-15T01:54:54.799Z,19.52
2022-09-15T01:58:56.363Z,19.50
2022-09-15T02:03:04.151Z,19.49
2022-09-15T02:07:11.655Z,19.47
2022-09-15T02:11:16.911Z,19.50
2022-09-15T02:15:29.103Z,19.50
2022-09-15T02:19:38.081Z,19.52
2022-09-15T02:23:44.802Z,19.50
2022-09-15T02:27:51.210Z,19.49
2022-09-15T02:31:56.235Z,19.50
2022-09-15T02:35:59.146Z,19.49
2022-09-15T02:40:01.627Z,19.49
2022-09-15T02:44:03.755Z,19.50
2022-09-15T02:48:05.531Z,19.47
2022-09-15T02:52:07.357Z,19.46
2022-09-15T02:56:08.885Z,19.45
2022-09-15T03:00:14.765Z,19.45
2022-09-15T03:04:16.513Z,19.43
2022-09-15T03:08:18.026Z,19.45
2022-09-15T03:12:19.546Z,19.43
2022-09-15T03:16:21.467Z,19.42
2022-09-15T03:20:27.929Z,19.40
2022-09-15T03:24:29.636Z,19.40
2022-09-15T03:28:31.684Z,19.39
2022-09-15T03:32:33.267Z,19.39
2022-09-15T03:36:34.770Z,19.38
2022-09-15T03:40:37.713Z,19.38
2022-09-15T03:44:39.234Z,19.39
2022-09-15T03:48:40.927Z,19.39
2022-09-15T03:52:42.440Z,19.38
2022-09-15T03:56:47.203Z,19.34
2022-09-15T04:00:48.749Z,19.34
2022-09-15T04:04:50.304Z,19.34
2022-09-15T04:08:53.090Z,19.31
2022-09-15T04:12:54.989Z,19.32
2022-09-15T04:16:56.477Z,19.32
2022-09-15T04:21:02.089Z,19.34
2022-09-15T04:25:04.008Z,19.34
2022-09-15T04:29:12.269Z,19.31
2022-09-15T04:33:13.758Z,19.24
2022-09-15T04:37:15.242Z,19.32
2022-09-15T04:41:17.784Z,19.35
2022-09-15T04:45:19.317Z,19.38
2022-09-15T04:49:20.887Z,19.39
2022-09-15T04:53:22.401Z,19.39
2022-09-15T04:57:23.916Z,19.39
2022-09-15T05:01:27.787Z,19.38
2022-09-15T05:05:29.296Z,19.31
2022-09-15T05:09:30.989Z,19.28
2022-09-15T05:13:34.047Z,19.27
2022-09-15T05:17:35.653Z,19.25
2022-09-15T05:21:37.418Z,19.24
2022-09-15T05:25:38.933Z,19.20
2022-09-15T05:29:40.442Z,19.17
2022-09-15T05:33:41.949Z,19.12
2022-09-15T05:37:43.467Z,18.97
2022-09-15T05:41:44.982Z,18.89
2022-09-15T05:45:54.615Z,18.74
2022-09-15T05:49:56.126Z,18.50
2022-09-15T05:53:57.600Z,18.26
2022-09-15T05:57:59.116Z,18.04
2022-09-15T06:02:00.625Z,17.71
2022-09-15T06:06:04.532Z,17.47
2022-09-15T06:10:06.751Z,17.22
2022-09-15T06:14:08.442Z,17.06
2022-09-15T06:18:09.930Z,16.92
2022-09-15T06:22:12.150Z,16.81
2022-09-15T06:26:16.665Z,16.73
2022-09-15T06:30:18.285Z,16.69
2022-09-15T06:34:19.869Z,16.67
2022-09-15T06:38:21.367Z,16.59
2022-09-15T06:42:22.836Z,16.55
2022-09-15T06:46:26.351Z,16.52
2022-09-15T06:50:28.218Z,16.47
2022-09-15T06:54:29.721Z,16.42
2022-09-15T06:58:33.792Z,16.34
2022-09-15T07:02:35.417Z,16.32
2022-09-15T07:06:39.005Z,16.33
2022-09-15T07:10:43.747Z,16.30
2022-09-15T07:14:45.510Z,16.32
2022-09-15T07:18:48.324Z,16.30
2022-09-15T07:22:49.892Z,16.40
2022-09-15T07:26:52.039Z,16.55
2022-09-15T07:30:53.544Z,16.65
2022-09-15T07:34:58.217Z,16.62
2022-09-15T07:39:00.120Z,16.67
2022-09-15T07:43:01.635Z,16.66
2022-09-15T07:47:03.166Z,16.84
2022-09-15T07:51:04.739Z,17.02
2022-09-15T07:55:06.764Z,17.15
2022-09-15T07:59:08.439Z,17.35
2022-09-15T08:03:09.913Z,17.54
2022-09-15T08:07:12.377Z,17.65
2022-09-15T08:11:18.831Z,17.76
2022-09-15T08:15:21.229Z,17.83
2022-09-15T08:19:22.853Z,17.92
2022-09-15T08:23:24.393Z,18.01
2022-09-15T08:27:25.906Z,18.02
2022-09-15T08:31:27.543Z,18.01
2022-09-15T08:35:29.502Z,18.09
2022-09-15T08:39:30.986Z,18.28
2022-09-15T08:43:51.408Z,18.29
2022-09-15T08:47:59.892Z,18.32
2022-09-15T08:52:07.063Z,18.34
2022-09-15T08:56:17.097Z,18.26
2022-09-15T09:00:18.699Z,18.36
2022-09-15T09:04:49.858Z,18.36
2022-09-15T09:08:57.188Z,18.53
2022-09-15T09:13:06.394Z,18.51
2022-09-15T09:17:20.186Z,18.60
2022-09-15T09:21:30.412Z,18.62
2022-09-15T09:25:32.064Z,18.62
2022-09-15T09:29:39.345Z,18.68
2022-09-15T09:33:49.391Z,18.74
2022-09-15T09:37:52.600Z,18.82
2022-09-15T09:41:55.124Z,18.84
2022-09-15T09:45:56.719Z,18.78
2022-09-15T09:49:59.910Z,18.71
2022-09-15T09:54:06.253Z,18.68
2022-09-15T09:58:13.056Z,18.65
2022-09-15T10:02:20.612Z,18.69
2022-09-15T10:06:22.764Z,18.69
2022-09-15T10:10:28.623Z,18.72
2022-09-15T10:14:41.544Z,18.69
2022-09-15T10:18:43.594Z,18.71
2022-09-15T10:22:45.250Z,18.84
2022-09-15T10:26:46.744Z,18.90
2022-09-15T10:31:13.523Z,18.91
2022-09-15T10:35:20.840Z,18.87
2022-09-15T10:39:37.202Z,18.83
2022-09-15T10:44:04.172Z,18.90
2022-09-15T10:48:11.752Z,19.01
2022-09-15T10:52:22.333Z,19.24
2022-09-15T10:56:29.482Z,19.40
2022-09-15T11:00:43.617Z,19.55
2022-09-15T11:05:00.152Z,19.67
2022-09-15T11:09:14.823Z,19.67
2022-09-15T11:13:40.012Z,19.67
2022-09-15T11:17:53.834Z,20.07
2022-09-15T11:22:02.244Z,20.27
2022-09-15T11:26:07.175Z,20.44
2022-09-15T11:30:20.725Z,20.30
2022-09-15T11:34:33.940Z,20.13
2022-09-15T11:39:00.861Z,19.97
2022-09-15T11:43:37.102Z,20.13
2022-09-15T11:47:43.729Z,20.58
2022-09-15T11:51:54.475Z,20.66
2022-09-15T11:56:05.295Z,20.71
2022-09-15T12:00:12.428Z,20.87
2022-09-15T12:04:28.586Z,20.85
2022-09-15T12:08:37.448Z,21.00
2022-09-15T12:12:41.936Z,21.33
2022-09-15T12:16:44.551Z,21.52
2022-09-15T12:20:58.771Z,21.58
2022-09-15T12:25:06.597Z,21.42
2022-09-15T12:29:26.470Z,21.33
2022-09-15T12:34:04.739Z,21.56
2022-09-15T12:38:15.555Z,21.67
2022-09-15T12:42:18.604Z,21.81
2022-09-15T12:46:20.446Z,21.85
2022-09-15T12:50:27.359Z,22.15
2022-09-15T12:54:33.985Z,22.57
2022-09-15T12:58:47.298Z,22.57
2022-09-15T13:02:50.848Z,22.21
2022-09-15T13:07:17.235Z,21.85
2022-09-15T13:11:28.374Z,21.46
2022-09-15T13:15:30.721Z,21.45
2022-09-15T13:19:41.425Z,21.46
2022-09-15T13:23:48.218Z,21.52
2022-09-15T13:27:54.144Z,21.53
2022-09-15T13:32:11.935Z,21.77
2022-09-15T13:41:16.360Z,21.85
2022-09-15T13:45:37.655Z,21.89
2022-09-15T13:50:04.357Z,22.09
2022-09-15T13:54:08.196Z,22.08
2022-09-15T14:07:00.078Z,21.28
2022-09-15T14:11:09.079Z,21.08
2022-09-15T14:15:19.823Z,20.96
2022-09-15T14:19:35.339Z,20.90
2022-09-15T14:23:45.925Z,20.83
2022-09-15T14:27:50.677Z,20.91
2022-09-15T14:31:53.154Z,21.16
2022-09-15T14:35:54.679Z,21.26
2022-09-15T14:39:58.456Z,21.33
2022-09-15T14:44:00.120Z,21.40
2022-09-15T14:48:07.080Z,21.58
2022-09-15T14:52:23.974Z,21.73
2022-09-15T14:56:30.283Z,21.90
2022-09-15T15:00:50.960Z,21.86
2022-09-15T15:04:59.090Z,21.83
2022-09-15T15:09:17.052Z,21.99
2022-09-15T15:13:19.028Z,22.02
2022-09-15T15:17:27.823Z,21.99
2022-09-15T15:21:35.254Z,21.91
2022-09-15T15:25:37.482Z,21.89
2022-09-15T15:29:47.083Z,21.82
2022-09-15T15:34:05.488Z,21.75
2022-09-15T15:38:15.275Z,21.74
2022-09-15T15:42:17.049Z,21.74
2022-09-15T15:46:45.642Z,21.70
2022-09-15T15:50:47.688Z,21.53
2022-09-15T15:54:49.180Z,21.46
2022-09-15T15:58:50.671Z,21.43
2022-09-15T16:02:52.517Z,21.40
2022-09-15T16:06:54.028Z,21.42
2022-09-15T16:10:56.754Z,21.48
2022-09-15T16:14:58.291Z,21.46
2022-09-15T16:19:00.240Z,21.40
2022-09-15T16:23:02.183Z,21.34
2022-09-15T16:27:09.830Z,21.30
2022-09-15T16:31:13.025Z,21.22
2022-09-15T16:35:33.519Z,21.15
2022-09-15T16:39:35.001Z,21.11
2022-09-15T16:43:36.484Z,21.11
2022-09-15T16:47:37.962Z,21.09
2022-09-15T16:51:39.560Z,21.05
2022-09-15T16:55:45.837Z,20.96
2022-09-15T16:59:47.332Z,20.88
2022-09-15T17:03:48.991Z,20.82
2022-09-15T17:07:50.514Z,20.78
2022-09-15T17:11:54.204Z,20.72
2022-09-15T17:15:56.224Z,20.69
2022-09-15T17:19:57.905Z,20.63
2022-09-15T17:23:59.402Z,20.57
2022-09-15T17:28:01.290Z,20.51
2022-09-15T17:32:02.816Z,20.44
2022-09-15T17:36:04.985Z,20.34
2022-09-15T17:40:07.114Z,20.25
2022-09-15T17:44:10.854Z,20.16
2022-09-15T17:48:12.802Z,20.05
2022-09-15T17:52:14.435Z,19.97
2022-09-15T17:56:16.235Z,19.89
2022-09-15T18:00:19.508Z,19.83
2022-09-15T18:04:20.975Z,19.79
2022-09-15T18:08:22.728Z,19.71
2022-09-15T18:12:24.748Z,19.68
2022-09-15T18:16:26.239Z,19.62
2022-09-15T18:20:29.362Z,19.57
2022-09-15T18:24:30.880Z,19.43
2022-09-15T18:28:32.386Z,19.38
2022-09-15T18:32:34.124Z,19.31
2022-09-15T18:36:35.711Z,19.30
2022-09-15T18:40:37.711Z,19.25
2022-09-15T18:44:39.247Z,19.27
2022-09-15T18:48:41.218Z,19.28
2022-09-15T18:52:43.164Z,19.27
2022-09-15T18:56:44.724Z,19.17
2022-09-15T19:00:46.494Z,19.13
2022-09-15T19:04:48.197Z,19.07
2022-09-15T19:08:49.900Z,18.97
2022-09-15T19:12:51.738Z,18.89
2022-09-15T19:16:57.894Z,18.83
2022-09-15T19:21:08.086Z,18.76
2022-09-15T19:25:11.023Z,18.74
2022-09-15T19:29:13.227Z,18.71
2022-09-15T19:33:14.728Z,18.72
2022-09-15T19:37:19.810Z,18.74
2022-09-15T19:41:21.421Z,18.69
2022-09-15T19:45:22.914Z,18.64
2022-09-15T19:49:25.660Z,18.46
2022-09-15T19:53:27.589Z,18.32
2022-09-15T19:57:29.268Z,18.31
2022-09-15T20:01:32.574Z,18.31
2022-09-15T20:05:34.147Z,18.32
2022-09-15T20:09:36.020Z,18.39
2022-09-15T20:13:41.359Z,18.41
2022-09-15T20:17:43.174Z,18.41
2022-09-15T20:21:51.434Z,18.36
2022-09-15T20:26:01.383Z,18.32
2022-09-15T20:30:03.396Z,18.26
2022-09-15T20:34:05.297Z,18.19
2022-09-15T20:38:06.885Z,18.09
2022-09-15T20:42:09.151Z,18.01
2022-09-15T20:46:17.666Z,17.94
2022-09-15T20:50:22.195Z,17.83
2022-09-15T20:54:32.648Z,17.76
2022-09-15T20:58:36.944Z,17.71
2022-09-15T21:02:39.459Z,17.70
2022-09-15T21:06:42.254Z,17.71
2022-09-15T21:10:47.966Z,17.70
2022-09-15T21:14:57.355Z,17.73
2022-09-15T21:18:59.485Z,17.74
2022-09-15T21:23:07.303Z,17.76
2022-09-15T21:27:32.726Z,17.73
2022-09-15T21:31:35.176Z,17.74
2022-09-15T21:35:39.132Z,17.74
2022-09-15T21:39:43.594Z,17.74
2022-09-15T21:43:59.769Z,17.74
2022-09-15T21:48:01.953Z,17.74
2022-09-15T21:52:05.135Z,17.76
2022-09-15T21:56:15.514Z,17.76
2022-09-15T22:00:20.420Z,17.79
2022-09-15T22:04:25.869Z,17.73
2022-09-15T22:08:30.213Z,17.66
2022-09-15T22:12:41.955Z,17.62
2022-09-15T22:16:46.819Z,17.66
2022-09-15T22:20:49.048Z,17.66
2022-09-15T22:24:51.110Z,17.63
2022-09-15T22:28:56.688Z,17.65
2022-09-15T22:32:58.548Z,17.68
2022-09-15T22:37:08.176Z,17.65
2022-09-15T22:41:15.732Z,17.65
2022-09-15T22:45:18.241Z,17.60
2022-09-15T22:49:31.483Z,17.60
2022-09-15T22:53:38.164Z,17.58
2022-09-15T22:57:48.067Z,17.55
2022-09-15T23:01:52.677Z,17.58
2022-09-15T23:06:03.328Z,17.57
2022-09-15T23:10:06.560Z,17.55
2022-09-15T23:14:16.421Z,17.58
2022-09-15T23:18:21.868Z,17.57
2022-09-15T23:22:27.302Z,17.49
2022-09-15T23:26:35.239Z,17.43
2022-09-15T23:30:45.853Z,17.39
2022-09-15T23:34:53.705Z,17.38
2022-09-15T23:38:55.924Z,17.33
2022-09-15T23:42:58.246Z,17.32
2022-09-15T23:47:06.875Z,17.32
2022-09-15T23:51:09.211Z,17.30
2022-09-15T23:55:14.491Z,17.25
2022-09-15T23:59:19.367Z,17.22
